createdAt,value
2023-05-02T00:00:15.929Z,99507.03
2023-05-02T00:02:46.589Z,99509.75
2023-05-02T00:05:16.395Z,99512.22
2023-05-02T00:07:46.580Z,99509.78
2023-05-02T00:10:18.909Z,99520.75
2023-05-02T00:12:48.645Z,99513.63
2023-05-02T00:15:18.322Z,99509.75
2023-05-02T00:17:48.014Z,99512.50
2023-05-02T00:20:17.806Z,99511.94
2023-05-02T00:22:47.488Z,99507.84
2023-05-02T00:25:19.719Z,99498.78
2023-05-02T00:27:51.324Z,99505.09
2023-05-02T00:30:21.712Z,99500.16
2023-05-02T00:32:51.537Z,99494.69
2023-05-02T00:35:21.544Z,99498.78
2023-05-02T00:37:51.221Z,99501.50
2023-05-02T00:40:23.653Z,99496.56
2023-05-02T00:42:53.442Z,99498.19
2023-05-02T00:45:23.371Z,99508.63
2023-05-02T00:47:53.597Z,99516.34
2023-05-02T00:50:23.708Z,99526.75
2023-05-02T00:52:53.476Z,99521.22
2023-05-02T00:55:25.747Z,99530.47
2023-05-02T00:57:55.835Z,99532.69
2023-05-02T01:00:33.702Z,99536.84
2023-05-02T01:03:13.721Z,99529.91
2023-05-02T01:05:52.104Z,99535.97
2023-05-02T01:08:28.651Z,99526.88
2023-05-02T01:11:08.382Z,99534.56
2023-05-02T01:13:41.025Z,99534.66
2023-05-02T01:16:13.268Z,99526.78
2023-05-02T01:18:45.384Z,99523.44
2023-05-02T01:21:15.327Z,99528.00
2023-05-02T01:23:55.351Z,99537.97
2023-05-02T01:26:39.245Z,99528.66
2023-05-02T01:29:12.675Z,99542.00
2023-05-02T01:31:46.176Z,99532.16
2023-05-02T01:34:15.881Z,99540.59
2023-05-02T01:36:47.810Z,99537.59
2023-05-02T01:39:23.272Z,99542.22
2023-05-02T01:41:54.833Z,99538.69
2023-05-02T01:44:28.679Z,99540.56
2023-05-02T01:47:00.425Z,99549.31
2023-05-02T01:49:32.574Z,99556.41
2023-05-02T01:52:06.345Z,99558.50
2023-05-02T01:54:39.809Z,99568.47
2023-05-02T01:57:11.661Z,99565.84
2023-05-02T01:59:46.524Z,99568.03
2023-05-02T02:02:18.716Z,99567.56
2023-05-02T02:04:51.598Z,99571.41
2023-05-02T02:07:21.359Z,99580.03
2023-05-02T02:09:51.133Z,99580.56
2023-05-02T02:12:27.455Z,99580.69
2023-05-02T02:15:06.977Z,99579.41
2023-05-02T02:17:43.439Z,99578.16
2023-05-02T02:20:14.969Z,99575.72
2023-05-02T02:22:47.137Z,99568.75
2023-05-02T02:25:18.754Z,99573.75
2023-05-02T02:27:50.249Z,99574.22
2023-05-02T02:30:22.618Z,99577.28
2023-05-02T02:32:52.520Z,99574.75
2023-05-02T02:35:22.854Z,99583.41
2023-05-02T02:38:01.877Z,99589.91
2023-05-02T02:40:34.787Z,99583.78
2023-05-02T02:43:12.950Z,99584.84
2023-05-02T02:45:55.803Z,99590.41
2023-05-02T02:48:33.428Z,99586.88
2023-05-02T02:51:14.174Z,99585.66
2023-05-02T02:53:54.646Z,99580.41
2023-05-02T02:56:30.389Z,99585.84
2023-05-02T02:59:04.816Z,99583.78
2023-05-02T03:01:39.369Z,99589.50
2023-05-02T03:04:11.309Z,99589.16
2023-05-02T03:06:42.439Z,99591.66
2023-05-02T03:09:18.898Z,99595.38
2023-05-02T03:11:50.530Z,99589.41
2023-05-02T03:14:21.468Z,99594.41
2023-05-02T03:16:53.950Z,99609.22
2023-05-02T03:19:23.932Z,99600.91
2023-05-02T03:21:53.954Z,99605.47
2023-05-02T03:24:23.850Z,99619.63
2023-05-02T03:26:59.255Z,99628.31
2023-05-02T03:29:35.272Z,99634.72
2023-05-02T03:32:07.723Z,99632.84
2023-05-02T03:34:39.229Z,99626.75
2023-05-02T03:37:08.985Z,99638.06
2023-05-02T03:39:38.931Z,99638.94
2023-05-02T03:42:08.646Z,99649.81
2023-05-02T03:44:38.326Z,99644.41
2023-05-02T03:47:11.011Z,99640.53
2023-05-02T03:49:44.009Z,99643.94
2023-05-02T03:52:14.292Z,99650.34
2023-05-02T03:54:44.704Z,99644.84
2023-05-02T03:57:14.408Z,99646.03
2023-05-02T03:59:45.944Z,99643.22
2023-05-02T04:02:28.053Z,99642.56
2023-05-02T04:04:58.034Z,99651.66
2023-05-02T04:07:27.750Z,99659.97
2023-05-02T04:10:03.983Z,99663.53
2023-05-02T04:12:38.205Z,99675.66
2023-05-02T04:15:09.080Z,99679.72
2023-05-02T04:17:41.652Z,99685.94
2023-05-02T04:20:13.676Z,99693.69
2023-05-02T04:22:48.219Z,99686.28
2023-05-02T04:25:18.604Z,99688.00
2023-05-02T04:27:51.963Z,99695.53
2023-05-02T04:30:24.689Z,99700.56
2023-05-02T04:33:05.884Z,99712.19
2023-05-02T04:35:38.792Z,99717.53
2023-05-02T04:38:08.627Z,99719.41
2023-05-02T04:40:39.296Z,99727.00
2023-05-02T04:43:10.327Z,99725.53
2023-05-02T04:45:45.826Z,99723.84
2023-05-02T04:48:26.073Z,99721.03
2023-05-02T04:50:56.449Z,99720.66
2023-05-02T04:53:29.238Z,99733.72
2023-05-02T04:55:59.537Z,99735.63
2023-05-02T04:58:29.272Z,99737.47
2023-05-02T05:01:03.232Z,99741.09
2023-05-02T05:03:35.977Z,99749.38
2023-05-02T05:06:05.907Z,99747.97
2023-05-02T05:08:36.227Z,99748.94
2023-05-02T05:11:07.717Z,99761.59
2023-05-02T05:13:38.381Z,99764.16
2023-05-02T05:16:10.140Z,99763.94
2023-05-02T05:18:43.246Z,99770.03
2023-05-02T05:21:15.756Z,99771.84
2023-05-02T05:23:46.523Z,99776.78
2023-05-02T05:26:27.085Z,99777.19
2023-05-02T05:28:57.563Z,99783.13
2023-05-02T05:31:30.031Z,99794.34
2023-05-02T05:34:04.693Z,99797.19
2023-05-02T05:36:34.486Z,99799.00
2023-05-02T05:39:05.349Z,99804.69
2023-05-02T05:41:38.413Z,99800.72
2023-05-02T05:44:11.284Z,99807.00
2023-05-02T05:46:41.556Z,99821.66
2023-05-02T05:49:16.154Z,99821.66
2023-05-02T05:51:47.795Z,99822.22
2023-05-02T05:54:19.831Z,99824.59
2023-05-02T05:56:49.981Z,99822.31
2023-05-02T05:59:22.362Z,99828.63
2023-05-02T06:01:52.096Z,99829.66
2023-05-02T06:04:27.078Z,99831.25
2023-05-02T06:06:56.943Z,99843.16
2023-05-02T06:09:27.323Z,99842.38
2023-05-02T06:11:57.119Z,99842.16
2023-05-02T06:14:27.157Z,99854.31
2023-05-02T06:16:57.259Z,99846.38
2023-05-02T06:19:29.535Z,99850.28
2023-05-02T06:21:59.216Z,99855.16
2023-05-02T06:24:28.941Z,99857.34
2023-05-02T06:26:58.657Z,99854.38
2023-05-02T06:29:28.359Z,99860.13
2023-05-02T06:31:58.928Z,99864.69
2023-05-02T06:34:31.313Z,99864.47
2023-05-02T06:37:01.050Z,99877.69
2023-05-02T06:39:30.894Z,99869.91
2023-05-02T06:42:00.909Z,99882.47
2023-05-02T06:44:31.885Z,99888.59
2023-05-02T06:47:01.644Z,99892.84
2023-05-02T06:49:33.909Z,99912.91
2023-05-02T06:52:03.604Z,99912.50
2023-05-02T06:54:33.387Z,99919.84
2023-05-02T06:57:03.209Z,99927.13
2023-05-02T06:59:32.830Z,99947.81
2023-05-02T07:02:05.027Z,99957.88
2023-05-02T07:04:37.711Z,99967.19
2023-05-02T07:07:07.470Z,99971.03
2023-05-02T07:09:37.288Z,99976.72
2023-05-02T07:12:07.705Z,99986.22
2023-05-02T07:14:37.398Z,99985.28
2023-05-02T07:17:07.225Z,99988.66
2023-05-02T07:19:39.596Z,99986.72
2023-05-02T07:22:09.650Z,99993.94
2023-05-02T07:24:43.492Z,99990.75
2023-05-02T07:27:14.396Z,99985.88
2023-05-02T07:29:44.780Z,99989.81
2023-05-02T07:32:14.622Z,99984.44
2023-05-02T07:34:47.272Z,99991.72
2023-05-02T07:37:16.996Z,99991.19
2023-05-02T07:39:46.681Z,99976.75
2023-05-02T07:42:16.414Z,99989.84
2023-05-02T07:44:46.194Z,99970.31
2023-05-02T07:47:15.902Z,99981.38
2023-05-02T07:49:48.199Z,99979.78
2023-05-02T07:52:17.849Z,99993.88
2023-05-02T07:54:47.552Z,99997.66
2023-05-02T07:57:17.305Z,100012.28
2023-05-02T07:59:47.465Z,100025.03
2023-05-02T08:02:20.253Z,100028.00
2023-05-02T08:04:52.760Z,100046.25
2023-05-02T08:07:22.512Z,100057.47
2023-05-02T08:09:52.194Z,100075.44
2023-05-02T08:12:21.903Z,100081.47
2023-05-02T08:14:51.618Z,100086.34
2023-05-02T08:17:21.622Z,100101.34
2023-05-02T08:19:53.887Z,100120.69
2023-05-02T08:22:23.586Z,100125.75
2023-05-02T08:24:53.246Z,100136.81
2023-05-02T08:27:22.911Z,100152.97
2023-05-02T08:29:52.645Z,100159.63
2023-05-02T08:32:22.548Z,100158.50
2023-05-02T08:34:57.794Z,100157.78
2023-05-02T08:37:27.471Z,100153.03
2023-05-02T08:39:57.189Z,100161.84
2023-05-02T08:42:27.696Z,100153.44
2023-05-02T08:44:57.465Z,100165.09
2023-05-02T08:47:28.569Z,100165.53
2023-05-02T08:50:03.246Z,100171.59
2023-05-02T08:52:35.188Z,100176.22
2023-05-02T08:55:06.192Z,100174.66
2023-05-02T08:57:36.071Z,100177.91
2023-05-02T09:00:06.067Z,100191.22
2023-05-02T09:02:53.469Z,100187.75
2023-05-02T09:05:27.676Z,100198.31
2023-05-02T09:07:57.479Z,100192.09
2023-05-02T09:10:31.304Z,100192.84
2023-05-02T09:13:01.339Z,100196.16
2023-05-02T09:15:31.169Z,100191.66
2023-05-02T09:18:00.907Z,100190.59
2023-05-02T09:20:44.113Z,100193.94
2023-05-02T09:23:14.128Z,100191.28
2023-05-02T09:25:43.905Z,100193.28
2023-05-02T09:28:13.658Z,100200.44
2023-05-02T09:30:43.532Z,100191.13
2023-05-02T09:33:13.279Z,100192.19
2023-05-02T09:35:56.912Z,100202.78
2023-05-02T09:38:26.763Z,100203.53
2023-05-02T09:40:57.485Z,100208.25
2023-05-02T09:43:27.289Z,100206.34
2023-05-02T09:46:01.617Z,100208.31
2023-05-02T09:48:32.098Z,100200.88
2023-05-02T09:51:04.974Z,100202.94
2023-05-02T09:53:34.859Z,100205.97
2023-05-02T09:56:06.614Z,100207.44
2023-05-02T09:58:36.353Z,100214.22
2023-05-02T10:01:06.314Z,100213.66
2023-05-02T10:03:40.634Z,100208.44
2023-05-02T10:06:13.193Z,100209.53
2023-05-02T10:08:45.707Z,100208.19
2023-05-02T10:11:18.763Z,100204.88
2023-05-02T10:13:49.606Z,100210.50
2023-05-02T10:16:26.570Z,100218.25
2023-05-02T10:19:06.075Z,100209.53
2023-05-02T10:21:40.046Z,100212.06
2023-05-02T10:24:10.036Z,100210.94
2023-05-02T10:26:40.117Z,100216.69
2023-05-02T10:29:10.689Z,100210.63
2023-05-02T10:31:44.803Z,100206.63
2023-05-02T10:34:15.070Z,100200.78
2023-05-02T10:36:47.470Z,100205.66
2023-05-02T10:39:17.391Z,100197.41
2023-05-02T10:41:47.856Z,100191.09
2023-05-02T10:44:17.689Z,100195.22
2023-05-02T10:46:47.934Z,100196.72
2023-05-02T10:49:17.960Z,100197.97
2023-05-02T10:51:50.343Z,100195.91
2023-05-02T10:54:27.327Z,100198.72
2023-05-02T10:57:11.505Z,100189.16
2023-05-02T10:59:43.243Z,100188.69
2023-05-02T11:02:43.415Z,100198.91
2023-05-02T11:05:13.259Z,100199.88
2023-05-02T11:07:45.639Z,100205.81
2023-05-02T11:10:29.777Z,100201.44
2023-05-02T11:13:01.381Z,100202.56
2023-05-02T11:16:00.203Z,100205.03
2023-05-02T11:18:30.087Z,100207.78
2023-05-02T11:21:31.832Z,100207.56
2023-05-02T11:24:34.204Z,100205.63
2023-05-02T11:27:44.097Z,100217.53
2023-05-02T11:30:16.538Z,100200.91
2023-05-02T11:33:20.433Z,100212.69
2023-05-02T11:35:51.431Z,100214.00
2023-05-02T11:38:24.089Z,100214.69
2023-05-02T11:40:56.084Z,100212.19
2023-05-02T11:43:30.736Z,100222.19
2023-05-02T11:46:06.171Z,100215.16
2023-05-02T11:48:36.287Z,100222.00
2023-05-02T11:51:07.416Z,100222.22
2023-05-02T11:53:43.614Z,100230.31
2023-05-02T11:56:13.686Z,100235.03
2023-05-02T11:58:44.514Z,100241.22
2023-05-02T12:01:18.492Z,100240.94
2023-05-02T12:03:49.556Z,100236.00
2023-05-02T12:06:21.591Z,100250.66
2023-05-02T12:08:55.735Z,100249.97
2023-05-02T12:11:26.640Z,100262.56
2023-05-02T12:13:56.512Z,100249.44
2023-05-02T12:16:29.100Z,100259.13
2023-05-02T12:19:01.436Z,100257.94
2023-05-02T12:21:33.192Z,100274.31
2023-05-02T12:24:04.157Z,100269.59
2023-05-02T12:26:34.209Z,100278.44
2023-05-02T12:29:03.977Z,100270.28
2023-05-02T12:31:36.835Z,100276.38
2023-05-02T12:34:06.991Z,100277.91
2023-05-02T12:36:37.590Z,100280.25
2023-05-02T12:39:07.408Z,100281.06
2023-05-02T12:41:38.843Z,100280.75
2023-05-02T12:44:09.682Z,100280.78
2023-05-02T12:47:02.104Z,100281.38
2023-05-02T12:49:32.068Z,100293.47
2023-05-02T12:52:01.938Z,100294.66
2023-05-02T12:54:31.854Z,100294.25
2023-05-02T12:57:03.175Z,100299.03
2023-05-02T12:59:34.922Z,100295.81
2023-05-02T13:02:07.148Z,100302.22
2023-05-02T13:04:37.691Z,100302.38
2023-05-02T13:07:07.849Z,100293.28
2023-05-02T13:09:37.731Z,100297.50
2023-05-02T13:12:09.421Z,100293.94
2023-05-02T13:14:39.396Z,100299.03
2023-05-02T13:17:12.784Z,100299.38
2023-05-02T13:19:47.680Z,100299.19
2023-05-02T13:22:24.011Z,100312.84
2023-05-02T13:24:54.170Z,100308.38
2023-05-02T13:27:26.699Z,100318.53
2023-05-02T13:29:57.157Z,100312.19
2023-05-02T13:32:29.508Z,100312.75
2023-05-02T13:34:59.214Z,100313.59
2023-05-02T13:37:29.543Z,100320.53
2023-05-02T13:39:59.449Z,100315.00
2023-05-02T13:42:29.366Z,100321.53
2023-05-02T13:44:59.201Z,100324.59
2023-05-02T13:47:31.835Z,100325.41
2023-05-02T13:50:01.873Z,100324.22
2023-05-02T13:52:31.773Z,100328.66
2023-05-02T13:55:01.812Z,100329.09
2023-05-02T13:57:31.917Z,100328.50
2023-05-02T14:00:01.790Z,100333.09
2023-05-02T14:02:37.999Z,100325.41
2023-05-02T14:05:08.818Z,100326.34
2023-05-02T14:07:38.694Z,100329.31
2023-05-02T14:10:10.249Z,100334.16
2023-05-02T14:12:39.978Z,100331.63
2023-05-02T14:15:12.292Z,100336.38
2023-05-02T14:17:45.147Z,100339.44
2023-05-02T14:20:16.728Z,100344.53
2023-05-02T14:22:46.665Z,100344.53
2023-05-02T14:25:19.932Z,100352.38
2023-05-02T14:27:50.019Z,100344.94
2023-05-02T14:30:20.557Z,100346.91
2023-05-02T14:32:52.869Z,100352.91
2023-05-02T14:35:22.908Z,100357.09
2023-05-02T14:37:52.722Z,100355.81
2023-05-02T14:40:22.555Z,100357.06
2023-05-02T14:42:52.487Z,100364.91
2023-05-02T14:45:22.422Z,100363.25
2023-05-02T14:47:54.832Z,100364.47
2023-05-02T14:50:24.794Z,100375.66
2023-05-02T14:52:54.489Z,100366.84
2023-05-02T14:55:24.297Z,100364.31
2023-05-02T14:57:55.499Z,100364.22
2023-05-02T15:00:26.590Z,100359.97
2023-05-02T15:02:58.952Z,100359.28
2023-05-02T15:05:28.792Z,100359.41
2023-05-02T15:07:58.488Z,100361.13
2023-05-02T15:10:28.540Z,100358.94
2023-05-02T15:12:58.375Z,100357.66
2023-05-02T15:15:28.093Z,100360.03
2023-05-02T15:18:02.660Z,100366.44
2023-05-02T15:20:32.518Z,100367.19
2023-05-02T15:23:03.767Z,100367.25
2023-05-02T15:25:34.397Z,100365.88
2023-05-02T15:28:04.605Z,100370.75
2023-05-02T15:30:34.428Z,100368.25
2023-05-02T15:33:07.098Z,100374.03
2023-05-02T15:35:37.085Z,100375.00
2023-05-02T15:38:06.761Z,100380.16
2023-05-02T15:40:36.773Z,100382.22
2023-05-02T15:43:06.592Z,100372.16
2023-05-02T15:45:36.676Z,100376.09
2023-05-02T15:48:11.650Z,100376.66
2023-05-02T15:50:41.388Z,100381.84
2023-05-02T15:53:11.107Z,100370.66
2023-05-02T15:55:41.000Z,100386.66
2023-05-02T15:58:11.313Z,100383.94
2023-05-02T16:00:41.279Z,100387.78
2023-05-02T16:03:14.651Z,100384.25
2023-05-02T16:05:44.533Z,100383.56
2023-05-02T16:08:14.303Z,100387.72
2023-05-02T16:10:44.155Z,100388.16
2023-05-02T16:13:14.080Z,100408.44
2023-05-02T16:15:43.747Z,100403.25
2023-05-02T16:18:16.436Z,100399.53
2023-05-02T16:20:47.929Z,100399.47
2023-05-02T16:23:18.080Z,100403.38
2023-05-02T16:25:47.729Z,100403.47
2023-05-02T16:28:17.400Z,100403.13
2023-05-02T16:30:47.076Z,100402.00
2023-05-02T16:33:19.379Z,100404.09
2023-05-02T16:35:49.201Z,100405.13
2023-05-02T16:38:19.356Z,100408.38
2023-05-02T16:40:49.436Z,100406.09
2023-05-02T16:43:19.461Z,100406.56
2023-05-02T16:45:49.281Z,100407.97
2023-05-02T16:48:23.057Z,100410.47
2023-05-02T16:50:53.549Z,100414.50
2023-05-02T16:53:24.141Z,100411.19
2023-05-02T16:55:53.842Z,100419.53
2023-05-02T16:58:25.226Z,100416.44
2023-05-02T17:00:55.074Z,100420.25
2023-05-02T17:03:28.095Z,100426.66
2023-05-02T17:06:02.053Z,100432.34
2023-05-02T17:08:32.493Z,100427.50
2023-05-02T17:11:02.223Z,100432.53
2023-05-02T17:13:31.949Z,100445.00
2023-05-02T17:16:02.195Z,100438.06
2023-05-02T17:18:34.695Z,100438.28
2023-05-02T17:21:04.625Z,100436.97
2023-05-02T17:23:34.411Z,100436.78
2023-05-02T17:26:05.695Z,100445.59
2023-05-02T17:28:35.478Z,100447.47
2023-05-02T17:31:05.417Z,100450.25
2023-05-02T17:33:37.974Z,100451.69
2023-05-02T17:36:08.394Z,100452.22
2023-05-02T17:38:38.378Z,100457.84
2023-05-02T17:41:08.542Z,100464.31
2023-05-02T17:43:38.294Z,100456.63
2023-05-02T17:46:11.727Z,100460.63
2023-05-02T17:48:45.742Z,100468.81
2023-05-02T17:51:16.250Z,100471.59
2023-05-02T17:53:46.130Z,100475.00
2023-05-02T17:56:18.913Z,100466.19
2023-05-02T17:58:48.792Z,100474.72
2023-05-02T18:01:18.512Z,100471.72
2023-05-02T18:03:50.918Z,100484.69
2023-05-02T18:06:21.743Z,100489.78
2023-05-02T18:08:51.713Z,100486.72
2023-05-02T18:11:23.812Z,100489.38
2023-05-02T18:13:53.450Z,100502.75
2023-05-02T18:16:23.238Z,100501.59
2023-05-02T18:18:55.666Z,100498.13
2023-05-02T18:21:26.036Z,100503.50
2023-05-02T18:23:56.999Z,100497.09
2023-05-02T18:26:26.965Z,100502.97
2023-05-02T18:28:57.575Z,100508.88
2023-05-02T18:31:27.310Z,100509.81
2023-05-02T18:33:59.814Z,100514.13
2023-05-02T18:36:31.713Z,100515.41
2023-05-02T18:39:01.404Z,100513.19
2023-05-02T18:41:31.384Z,100514.28
2023-05-02T18:44:01.528Z,100516.97
2023-05-02T18:46:31.366Z,100518.75
2023-05-02T18:49:03.920Z,100525.50
2023-05-02T18:51:33.762Z,100531.66
2023-05-02T18:54:03.738Z,100528.03
2023-05-02T18:56:33.592Z,100531.84
2023-05-02T18:59:03.451Z,100532.25
2023-05-02T19:01:33.189Z,100525.38
2023-05-02T19:04:06.245Z,100537.44
2023-05-02T19:06:36.026Z,100537.72
2023-05-02T19:09:06.389Z,100537.72
2023-05-02T19:11:36.911Z,100538.47
2023-05-02T19:14:06.752Z,100536.00
2023-05-02T19:16:38.310Z,100542.44
2023-05-02T19:19:10.830Z,100536.47
2023-05-02T19:21:40.797Z,100544.56
2023-05-02T19:24:11.620Z,100551.56
2023-05-02T19:26:41.794Z,100551.56
2023-05-02T19:29:12.043Z,100553.44
2023-05-02T19:31:43.915Z,100562.59
2023-05-02T19:34:16.427Z,100557.94
2023-05-02T19:36:46.519Z,100570.25
2023-05-02T19:39:16.464Z,100575.66
2023-05-02T19:41:48.257Z,100577.53
2023-05-02T19:44:18.175Z,100567.25
2023-05-02T19:46:48.287Z,100583.16
2023-05-02T19:49:20.906Z,100575.88
2023-05-02T19:51:50.625Z,100579.47
2023-05-02T19:54:20.555Z,100579.91
2023-05-02T19:56:51.339Z,100580.22
2023-05-02T19:59:21.307Z,100584.25
2023-05-02T20:01:51.372Z,100592.50
2023-05-02T20:04:25.291Z,100593.34
2023-05-02T20:06:55.160Z,100586.91
2023-05-02T20:09:25.379Z,100588.72
2023-05-02T20:11:55.269Z,100590.13
2023-05-02T20:14:25.090Z,100589.94
2023-05-02T20:17:01.764Z,100594.28
2023-05-02T20:19:35.066Z,100596.66
2023-05-02T20:22:04.912Z,100595.09
2023-05-02T20:24:34.702Z,100598.16
2023-05-02T20:27:04.476Z,100606.03
2023-05-02T20:29:34.560Z,100612.03
2023-05-02T20:32:04.781Z,100605.03
2023-05-02T20:34:39.498Z,100601.31
2023-05-02T20:37:10.404Z,100606.59
2023-05-02T20:39:40.259Z,100603.59
2023-05-02T20:42:12.716Z,100612.63
2023-05-02T20:44:42.847Z,100599.81
2023-05-02T20:47:12.581Z,100610.16
2023-05-02T20:49:45.074Z,100604.19
2023-05-02T20:52:14.804Z,100605.59
2023-05-02T20:54:45.415Z,100603.09
2023-05-02T20:57:15.694Z,100608.16
2023-05-02T20:59:46.186Z,100603.63
2023-05-02T21:02:15.938Z,100610.44
2023-05-02T21:04:48.411Z,100617.00
2023-05-02T21:07:18.200Z,100621.75
2023-05-02T21:09:47.955Z,100618.56
2023-05-02T21:12:17.851Z,100615.69
2023-05-02T21:14:47.478Z,100616.94
2023-05-02T21:17:17.238Z,100624.72
2023-05-02T21:19:49.512Z,100620.66
2023-05-02T21:22:19.250Z,100628.69
2023-05-02T21:24:50.351Z,100635.88
2023-05-02T21:27:20.124Z,100636.81
2023-05-02T21:29:49.893Z,100642.44
2023-05-02T21:32:19.580Z,100635.31
2023-05-02T21:34:52.777Z,100638.69
2023-05-02T21:37:22.546Z,100633.25
2023-05-02T21:39:52.181Z,100641.69
2023-05-02T21:42:21.840Z,100644.59
2023-05-02T21:44:52.544Z,100649.31
2023-05-02T21:47:22.450Z,100646.00
2023-05-02T21:49:56.368Z,100646.78
2023-05-02T21:52:26.129Z,100642.25
2023-05-02T21:54:55.946Z,100648.06
2023-05-02T21:57:25.757Z,100651.84
2023-05-02T21:59:55.530Z,100652.38
2023-05-02T22:02:25.359Z,100650.44
2023-05-02T22:05:01.086Z,100652.88
2023-05-02T22:07:30.917Z,100657.25
2023-05-02T22:10:01.146Z,100648.66
2023-05-02T22:12:31.153Z,100652.47
2023-05-02T22:15:00.867Z,100653.88
2023-05-02T22:17:31.916Z,100647.53
2023-05-02T22:20:10.256Z,100656.31
2023-05-02T22:22:39.909Z,100655.38
2023-05-02T22:25:10.544Z,100654.47
2023-05-02T22:27:40.314Z,100656.16
2023-05-02T22:30:12.104Z,100653.78
2023-05-02T22:32:41.835Z,100665.41
2023-05-02T22:35:14.359Z,100665.22
2023-05-02T22:37:44.021Z,100668.34
2023-05-02T22:40:15.098Z,100664.53
2023-05-02T22:42:44.780Z,100670.03
2023-05-02T22:45:14.909Z,100670.06
2023-05-02T22:47:44.639Z,100659.13
2023-05-02T22:50:18.456Z,100668.53
2023-05-02T22:52:49.167Z,100662.16
2023-05-02T22:55:19.967Z,100664.66
2023-05-02T22:57:49.630Z,100660.94
2023-05-02T23:00:20.012Z,100661.63
2023-05-02T23:02:49.848Z,100660.53
2023-05-02T23:05:22.470Z,100659.16
2023-05-02T23:07:52.342Z,100661.00
2023-05-02T23:10:22.065Z,100656.78
2023-05-02T23:12:51.704Z,100651.72
2023-05-02T23:15:21.686Z,100656.66
2023-05-02T23:17:51.469Z,100655.13
2023-05-02T23:20:24.153Z,100662.31
2023-05-02T23:22:54.167Z,100665.97
2023-05-02T23:25:25.744Z,100668.38
2023-05-02T23:27:56.206Z,100666.66
2023-05-02T23:30:26.197Z,100670.88
2023-05-02T23:32:56.928Z,100678.38
2023-05-02T23:35:29.428Z,100682.63
2023-05-02T23:38:01.965Z,100673.59
2023-05-02T23:40:31.758Z,100680.09
2023-05-02T23:43:01.857Z,100674.59
2023-05-02T23:45:31.530Z,100678.50
2023-05-02T23:48:01.231Z,100690.47
2023-05-02T23:50:34.596Z,100691.50
2023-05-02T23:53:04.256Z,100689.88
2023-05-02T23:55:34.758Z,100699.22
2023-05-02T23:58:04.399Z,100692.06
